sensor_id;sensor_type;location;lat;lon;timestamp;pressure;altitude;pressure_sealevel;temperature;humidity
10176;BME280;18221;38.704;0.152;2023-06-10T00:00:07;98490.41;;;27.68;45.05
10176;BME280;18221;38.704;0.152;2023-06-10T00:13:15;98485.06;;;27.83;40.00
10176;BME280;18221;38.704;0.152;2023-06-10T00:15:44;98489.47;;;27.89;40.42
10176;BME280;18221;38.704;0.152;2023-06-10T00:18:12;98484.78;;;27.85;41.43
10176;BME280;18221;38.704;0.152;2023-06-10T00:20:40;98485.06;;;27.83;41.88
10176;BME280;18221;38.704;0.152;2023-06-10T00:23:08;98484.78;;;27.85;42.24
10176;BME280;18221;38.704;0.152;2023-06-10T00:25:37;98483.44;;;27.87;41.73
10176;BME280;18221;38.704;0.152;2023-06-10T00:28:05;98484.00;;;27.84;40.95
10176;BME280;18221;38.704;0.152;2023-06-10T00:30:35;98478.53;;;27.84;39.82
10176;BME280;18221;38.704;0.152;2023-06-10T00:33:03;98486.09;;;27.77;39.19
10176;BME280;18221;38.704;0.152;2023-06-10T00:35:31;98479.03;;;27.76;38.71
10176;BME280;18221;38.704;0.152;2023-06-10T00:37:59;98472.19;;;27.74;38.41
10176;BME280;18221;38.704;0.152;2023-06-10T00:40:27;98468.91;;;27.77;38.07
10176;BME280;18221;38.704;0.152;2023-06-10T00:42:55;98472.47;;;27.77;37.69
10176;BME280;18221;38.704;0.152;2023-06-10T00:45:24;98474.13;;;27.78;37.16
10176;BME280;18221;38.704;0.152;2023-06-10T00:47:53;98471.13;;;27.80;36.76
10176;BME280;18221;38.704;0.152;2023-06-10T00:50:21;98474.91;;;27.74;37.12
10176;BME280;18221;38.704;0.152;2023-06-10T00:52:50;98473.81;;;27.75;36.95
10176;BME280;18221;38.704;0.152;2023-06-10T00:55:18;98473.06;;;27.84;36.55
10176;BME280;18221;38.704;0.152;2023-06-10T00:57:47;98479.66;;;27.93;36.34
10176;BME280;18221;38.704;0.152;2023-06-10T01:00:17;98468.19;;;27.91;36.20
10176;BME280;18221;38.704;0.152;2023-06-10T01:02:45;98481.88;;;27.96;36.20
10176;BME280;18221;38.704;0.152;2023-06-10T01:05:14;98479.19;;;28.01;36.27
10176;BME280;18221;38.704;0.152;2023-06-10T01:07:58;98480.88;;;28.07;36.13
10176;BME280;18221;38.704;0.152;2023-06-10T01:10:34;98479.78;;;28.08;35.42
10176;BME280;18221;38.704;0.152;2023-06-10T01:13:06;98477.63;;;28.10;36.17
10176;BME280;18221;38.704;0.152;2023-06-10T01:15:38;98470.50;;;28.09;35.99
10176;BME280;18221;38.704;0.152;2023-06-10T01:18:08;98466.66;;;28.05;36.40
10176;BME280;18221;38.704;0.152;2023-06-10T01:20:44;98471.47;;;27.93;36.02
10176;BME280;18221;38.704;0.152;2023-06-10T01:23:15;98459.22;;;27.96;35.92
10176;BME280;18221;38.704;0.152;2023-06-10T01:25:49;98455.66;;;27.95;35.56
10176;BME280;18221;38.704;0.152;2023-06-10T01:28:27;98462.22;;;27.94;35.26
10176;BME280;18221;38.704;0.152;2023-06-10T01:31:07;98461.91;;;27.91;34.73
10176;BME280;18221;38.704;0.152;2023-06-10T01:33:42;98458.34;;;27.90;34.86
10176;BME280;18221;38.704;0.152;2023-06-10T01:36:12;98464.09;;;27.89;34.46
10176;BME280;18221;38.704;0.152;2023-06-10T01:38:45;98457.25;;;27.86;34.61
10176;BME280;18221;38.704;0.152;2023-06-10T01:41:16;98457.81;;;27.88;34.55
10176;BME280;18221;38.704;0.152;2023-06-10T01:43:45;98460.88;;;27.97;34.51
10176;BME280;18221;38.704;0.152;2023-06-10T01:46:14;98454.47;;;27.76;33.97
10176;BME280;18221;38.704;0.152;2023-06-10T01:48:45;98457.78;;;27.83;34.27
10176;BME280;18221;38.704;0.152;2023-06-10T01:51:14;98446.38;;;27.91;33.78
10176;BME280;18221;38.704;0.152;2023-06-10T01:53:43;98450.66;;;27.82;34.34
10176;BME280;18221;38.704;0.152;2023-06-10T01:56:11;98456.19;;;27.92;33.94
10176;BME280;18221;38.704;0.152;2023-06-10T01:58:43;98455.09;;;27.93;33.98
10176;BME280;18221;38.704;0.152;2023-06-10T02:01:11;98456.75;;;27.94;33.90
10176;BME280;18221;38.704;0.152;2023-06-10T02:03:39;98455.59;;;27.85;33.21
10176;BME280;18221;38.704;0.152;2023-06-10T02:06:07;98457.28;;;27.91;33.77
10176;BME280;18221;38.704;0.152;2023-06-10T02:08:35;98456.22;;;27.97;33.57
10176;BME280;18221;38.704;0.152;2023-06-10T02:11:05;98453.22;;;27.99;33.62
10176;BME280;18221;38.704;0.152;2023-06-10T02:13:33;98455.47;;;28.02;33.58
10176;BME280;18221;38.704;0.152;2023-06-10T02:16:01;98448.09;;;28.02;33.50
10176;BME280;18221;38.704;0.152;2023-06-10T02:18:29;98450.78;;;27.97;33.36
10176;BME280;18221;38.704;0.152;2023-06-10T02:20:57;98452.41;;;27.98;33.69
10176;BME280;18221;38.704;0.152;2023-06-10T02:23:25;98458.38;;;27.95;33.20
10176;BME280;18221;38.704;0.152;2023-06-10T02:25:53;98456.44;;;27.91;33.28
10176;BME280;18221;38.704;0.152;2023-06-10T02:28:22;98450.78;;;27.97;33.35
10176;BME280;18221;38.704;0.152;2023-06-10T02:30:51;98449.66;;;27.93;33.22
10176;BME280;18221;38.704;0.152;2023-06-10T02:33:19;98453.19;;;27.89;33.14
10176;BME280;18221;38.704;0.152;2023-06-10T02:35:48;98456.69;;;27.84;32.80
10176;BME280;18221;38.704;0.152;2023-06-10T02:38:16;98445.00;;;27.89;32.95
10176;BME280;18221;38.704;0.152;2023-06-10T02:40:44;98446.88;;;27.83;33.10
10176;BME280;18221;38.704;0.152;2023-06-10T02:43:12;98439.50;;;27.84;33.00
10176;BME280;18221;38.704;0.152;2023-06-10T02:45:41;98441.72;;;27.87;32.79
10176;BME280;18221;38.704;0.152;2023-06-10T02:48:09;98437.56;;;27.79;32.75
10176;BME280;18221;38.704;0.152;2023-06-10T02:50:37;98437.81;;;27.78;32.58
10176;BME280;18221;38.704;0.152;2023-06-10T02:53:06;98436.09;;;27.67;32.16
10176;BME280;18221;38.704;0.152;2023-06-10T02:55:34;98432.59;;;27.66;32.54
10176;BME280;18221;38.704;0.152;2023-06-10T02:58:02;98421.44;;;27.73;32.12
10176;BME280;18221;38.704;0.152;2023-06-10T03:00:30;98418.16;;;27.71;31.87
10176;BME280;18221;38.704;0.152;2023-06-10T03:03:00;98419.50;;;27.68;31.93
10176;BME280;18221;38.704;0.152;2023-06-10T03:05:29;98412.41;;;27.72;32.08
10176;BME280;18221;38.704;0.152;2023-06-10T03:07:57;98412.97;;;27.74;31.91
10176;BME280;18221;38.704;0.152;2023-06-10T03:10:25;98408.63;;;27.73;31.50
10176;BME280;18221;38.704;0.152;2023-06-10T03:12:53;98410.28;;;27.79;31.60
10176;BME280;18221;38.704;0.152;2023-06-10T03:15:22;98413.78;;;27.75;31.74
10176;BME280;18221;38.704;0.152;2023-06-10T03:17:51;98413.53;;;27.76;31.37
10176;BME280;18221;38.704;0.152;2023-06-10T03:20:20;98413.03;;;27.79;31.19
10176;BME280;18221;38.704;0.152;2023-06-10T03:22:49;98407.84;;;27.88;31.22
10176;BME280;18221;38.704;0.152;2023-06-10T03:25:17;98410.31;;;27.84;30.95
10176;BME280;18221;38.704;0.152;2023-06-10T03:27:47;98405.09;;;27.83;31.42
10176;BME280;18221;38.704;0.152;2023-06-10T03:30:15;98406.72;;;27.74;31.59
10176;BME280;18221;38.704;0.152;2023-06-10T03:32:43;98410.75;;;27.66;31.51
10176;BME280;18221;38.704;0.152;2023-06-10T03:35:11;98404.75;;;27.69;31.13
10176;BME280;18221;38.704;0.152;2023-06-10T03:37:42;98406.09;;;27.67;31.28
10176;BME280;18221;38.704;0.152;2023-06-10T03:40:10;98416.44;;;27.60;31.41
10176;BME280;18221;38.704;0.152;2023-06-10T03:42:40;98403.88;;;27.58;31.39
10176;BME280;18221;38.704;0.152;2023-06-10T03:45:10;98405.88;;;27.73;31.04
10176;BME280;18221;38.704;0.152;2023-06-10T03:47:39;98399.31;;;27.74;30.96
10176;BME280;18221;38.704;0.152;2023-06-10T03:50:08;98398.56;;;27.84;31.03
10176;BME280;18221;38.704;0.152;2023-06-10T03:52:38;98403.53;;;27.92;30.72
10176;BME280;18221;38.704;0.152;2023-06-10T03:55:08;98409.78;;;27.92;30.83
10176;BME280;18221;38.704;0.152;2023-06-10T03:57:39;98401.56;;;27.82;30.94
10176;BME280;18221;38.704;0.152;2023-06-10T04:00:16;98405.69;;;27.90;30.67
10176;BME280;18221;38.704;0.152;2023-06-10T04:02:47;98404.59;;;27.86;30.71
10176;BME280;18221;38.704;0.152;2023-06-10T04:05:19;98405.34;;;27.76;31.21
10176;BME280;18221;38.704;0.152;2023-06-10T04:07:49;98408.06;;;27.71;30.92
10176;BME280;18221;38.704;0.152;2023-06-10T04:10:18;98410.81;;;27.76;30.79
10176;BME280;18221;38.704;0.152;2023-06-10T04:12:46;98411.34;;;27.73;31.11
10176;BME280;18221;38.704;0.152;2023-06-10T04:15:14;98412.75;;;27.81;31.20
10176;BME280;18221;38.704;0.152;2023-06-10T04:17:43;98410.09;;;27.96;30.99
10176;BME280;18221;38.704;0.152;2023-06-10T04:20:14;98410.31;;;27.84;30.71
10176;BME280;18221;38.704;0.152;2023-06-10T04:22:42;98410.91;;;27.96;30.68
10176;BME280;18221;38.704;0.152;2023-06-10T04:25:11;98405.97;;;27.88;30.67
10176;BME280;18221;38.704;0.152;2023-06-10T04:27:40;98396.38;;;27.81;30.71
10176;BME280;18221;38.704;0.152;2023-06-10T04:30:09;98400.81;;;27.92;30.61
10176;BME280;18221;38.704;0.152;2023-06-10T04:32:37;98407.09;;;27.97;30.19
10176;BME280;18221;38.704;0.152;2023-06-10T04:35:07;98404.03;;;27.84;30.89
10176;BME280;18221;38.704;0.152;2023-06-10T04:37:35;98402.19;;;27.94;30.76
10176;BME280;18221;38.704;0.152;2023-06-10T04:40:04;98404.94;;;27.99;30.50
10176;BME280;18221;38.704;0.152;2023-06-10T04:42:32;98400.50;;;27.88;30.79
10176;BME280;18221;38.704;0.152;2023-06-10T04:45:01;98400.53;;;27.98;30.58
10176;BME280;18221;38.704;0.152;2023-06-10T04:47:30;98400.50;;;27.88;30.76
10176;BME280;18221;38.704;0.152;2023-06-10T04:49:59;98401.34;;;27.94;30.49
10176;BME280;18221;38.704;0.152;2023-06-10T04:52:27;98397.63;;;28.05;30.47
10176;BME280;18221;38.704;0.152;2023-06-10T04:54:55;98403.25;;;27.93;30.55
10176;BME280;18221;38.704;0.152;2023-06-10T04:57:24;98404.06;;;27.89;30.37
10176;BME280;18221;38.704;0.152;2023-06-10T04:59:53;98400.22;;;27.90;30.58
10176;BME280;18221;38.704;0.152;2023-06-10T05:02:23;98405.94;;;27.83;30.64
10176;BME280;18221;38.704;0.152;2023-06-10T05:04:51;98399.41;;;27.84;30.86
10176;BME280;18221;38.704;0.152;2023-06-10T05:07:20;98398.06;;;27.92;30.91
10176;BME280;18221;38.704;0.152;2023-06-10T05:09:48;98396.72;;;27.94;30.89
10176;BME280;18221;38.704;0.152;2023-06-10T05:12:16;98408.13;;;27.81;31.02
10176;BME280;18221;38.704;0.152;2023-06-10T05:14:44;98402.41;;;27.88;30.93
10176;BME280;18221;38.704;0.152;2023-06-10T05:17:12;98401.31;;;27.89;30.53
10176;BME280;18221;38.704;0.152;2023-06-10T05:19:42;98401.56;;;27.87;30.78
10176;BME280;18221;38.704;0.152;2023-06-10T05:22:10;98404.31;;;27.92;30.70
10176;BME280;18221;38.704;0.152;2023-06-10T05:24:38;98403.66;;;28.12;30.86
10176;BME280;18221;38.704;0.152;2023-06-10T05:27:06;98396.47;;;28.01;30.69
10176;BME280;18221;38.704;0.152;2023-06-10T05:29:35;98393.50;;;28.02;30.76
10176;BME280;18221;38.704;0.152;2023-06-10T05:32:03;98393.56;;;28.17;30.44
10176;BME280;18221;38.704;0.152;2023-06-10T05:34:31;98389.97;;;28.07;30.73
10176;BME280;18221;38.704;0.152;2023-06-10T05:37:01;98397.91;;;28.13;30.51
10176;BME280;18221;38.704;0.152;2023-06-10T05:39:29;98397.34;;;28.06;30.41
10176;BME280;18221;38.704;0.152;2023-06-10T05:41:58;98396.78;;;28.04;30.41
10176;BME280;18221;38.704;0.152;2023-06-10T05:44:27;98401.41;;;28.04;30.85
10176;BME280;18221;38.704;0.152;2023-06-10T05:46:55;98410.50;;;28.20;31.06
10176;BME280;18221;38.704;0.152;2023-06-10T05:49:23;98426.69;;;28.36;31.01
10176;BME280;18221;38.704;0.152;2023-06-10T05:51:51;98422.56;;;28.29;30.92
10176;BME280;18221;38.704;0.152;2023-06-10T05:54:21;98434.03;;;28.31;30.94
10176;BME280;18221;38.704;0.152;2023-06-10T05:56:49;98427.75;;;28.35;31.15
10176;BME280;18221;38.704;0.152;2023-06-10T05:59:17;98429.38;;;28.31;30.85
10176;BME280;18221;38.704;0.152;2023-06-10T06:01:45;98442.53;;;28.39;30.80
10176;BME280;18221;38.704;0.152;2023-06-10T06:04:13;98448.22;;;28.33;31.15
10176;BME280;18221;38.704;0.152;2023-06-10T06:06:40;98444.97;;;28.41;31.34
10176;BME280;18221;38.704;0.152;2023-06-10T06:09:08;98454.25;;;28.40;31.18
10176;BME280;18221;38.704;0.152;2023-06-10T06:11:38;98461.09;;;28.42;31.55
10176;BME280;18221;38.704;0.152;2023-06-10T06:14:06;98466.09;;;28.65;31.70
10176;BME280;18221;38.704;0.152;2023-06-10T06:16:34;98471.34;;;28.77;31.80
10176;BME280;18221;38.704;0.152;2023-06-10T06:19:02;98479.53;;;28.82;31.24
10176;BME280;18221;38.704;0.152;2023-06-10T06:21:32;98479.84;;;28.91;31.91
10176;BME280;18221;38.704;0.152;2023-06-10T06:24:00;98481.47;;;28.97;31.87
10176;BME280;18221;38.704;0.152;2023-06-10T06:26:28;98471.38;;;29.02;31.33
10176;BME280;18221;38.704;0.152;2023-06-10T06:28:58;98487.78;;;29.07;31.57
10176;BME280;18221;38.704;0.152;2023-06-10T06:31:26;98489.44;;;29.13;31.91
10176;BME280;18221;38.704;0.152;2023-06-10T06:33:54;98486.16;;;29.16;32.84
10176;BME280;18221;38.704;0.152;2023-06-10T06:36:21;98490.59;;;29.22;32.77
10176;BME280;18221;38.704;0.152;2023-06-10T06:38:49;98480.72;;;29.21;33.40
10176;BME280;18221;38.704;0.152;2023-06-10T06:41:17;98472.53;;;29.21;33.50
10176;BME280;18221;38.704;0.152;2023-06-10T06:43:45;98478.81;;;29.27;33.48
10176;BME280;18221;38.704;0.152;2023-06-10T06:46:15;98476.34;;;29.25;33.05
10176;BME280;18221;38.704;0.152;2023-06-10T06:48:43;98484.56;;;29.25;32.62
10176;BME280;18221;38.704;0.152;2023-06-10T06:51:11;98488.69;;;29.38;32.54
10176;BME280;18221;38.704;0.152;2023-06-10T06:53:39;98496.88;;;29.48;31.90
10176;BME280;18221;38.704;0.152;2023-06-10T06:56:10;98493.31;;;29.48;32.41
10176;BME280;18221;38.704;0.152;2023-06-10T06:58:38;98501.25;;;29.54;34.99
10176;BME280;18221;38.704;0.152;2023-06-10T07:01:06;98502.59;;;29.52;39.67
10176;BME280;18221;38.704;0.152;2023-06-10T07:03:36;98525.03;;;29.33;41.26
10176;BME280;18221;38.704;0.152;2023-06-10T07:06:04;98526.16;;;29.38;41.08
10176;BME280;18221;38.704;0.152;2023-06-10T07:08:32;98526.16;;;29.48;40.02
10176;BME280;18221;38.704;0.152;2023-06-10T07:11:00;98522.59;;;29.37;38.41
10176;BME280;18221;38.704;0.152;2023-06-10T07:13:28;98524.50;;;29.47;39.57
10176;BME280;18221;38.704;0.152;2023-06-10T07:15:56;98522.03;;;29.55;39.33
10176;BME280;18221;38.704;0.152;2023-06-10T07:18:25;98525.88;;;29.69;39.34
10176;BME280;18221;38.704;0.152;2023-06-10T07:20:54;98526.97;;;29.88;38.17
10176;BME280;18221;38.704;0.152;2023-06-10T07:23:22;98517.94;;;30.03;36.97
10176;BME280;18221;38.704;0.152;2023-06-10T07:25:50;98517.06;;;30.18;36.32
10176;BME280;18221;38.704;0.152;2023-06-10T07:28:18;98516.22;;;30.22;35.56
10176;BME280;18221;38.704;0.152;2023-06-10T07:30:47;98514.81;;;30.30;35.72
10176;BME280;18221;38.704;0.152;2023-06-10T07:33:15;98515.03;;;30.53;35.26
10176;BME280;18221;38.704;0.152;2023-06-10T07:35:43;98505.16;;;30.63;35.08
10176;BME280;18221;38.704;0.152;2023-06-10T07:38:12;98514.72;;;30.65;34.57
10176;BME280;18221;38.704;0.152;2023-06-10T07:40:40;98513.88;;;30.70;34.33
10176;BME280;18221;38.704;0.152;2023-06-10T07:43:09;98512.22;;;30.74;33.02
10176;BME280;18221;38.704;0.152;2023-06-10T07:45:39;98514.34;;;30.92;32.75
10176;BME280;18221;38.704;0.152;2023-06-10T07:48:07;98510.44;;;31.03;31.60
10176;BME280;18221;38.704;0.152;2023-06-10T07:50:35;98509.53;;;31.17;31.71
10176;BME280;18221;38.704;0.152;2023-06-10T07:53:04;98508.63;;;31.27;30.84
10176;BME280;18221;38.704;0.152;2023-06-10T07:55:34;98518.00;;;31.21;30.05
10176;BME280;18221;38.704;0.152;2023-06-10T07:58:02;98518.59;;;31.18;30.17
10176;BME280;18221;38.704;0.152;2023-06-10T08:00:30;98519.06;;;31.25;29.65
10176;BME280;18221;38.704;0.152;2023-06-10T08:02:59;98524.03;;;31.23;29.01
10176;BME280;18221;38.704;0.152;2023-06-10T08:05:27;98527.28;;;31.30;28.72
10176;BME280;18221;38.704;0.152;2023-06-10T08:07:56;98521.88;;;31.59;28.40
10176;BME280;18221;38.704;0.152;2023-06-10T08:10:24;98528.75;;;31.56;27.37
10176;BME280;18221;38.704;0.152;2023-06-10T08:12:53;98531.78;;;31.84;26.99
10176;BME280;18221;38.704;0.152;2023-06-10T08:15:21;98542.47;;;31.56;27.03
10176;BME280;18221;38.704;0.152;2023-06-10T08:17:49;98534.84;;;31.48;26.51
10176;BME280;18221;38.704;0.152;2023-06-10T08:20:17;98540.56;;;31.57;26.41
10176;BME280;18221;38.704;0.152;2023-06-10T08:22:45;98540.50;;;31.62;26.32
10176;BME280;18221;38.704;0.152;2023-06-10T08:25:13;98543.69;;;31.74;26.02
10176;BME280;18221;38.704;0.152;2023-06-10T08:27:42;98541.28;;;31.67;26.31
10176;BME280;18221;38.704;0.152;2023-06-10T08:30:12;98539.19;;;31.88;26.18
10176;BME280;18221;38.704;0.152;2023-06-10T08:32:40;98545.66;;;32.02;25.88
10176;BME280;18221;38.704;0.152;2023-06-10T08:35:09;98548.38;;;32.31;25.60
10176;BME280;18221;38.704;0.152;2023-06-10T08:37:37;98546.50;;;32.50;25.85
10176;BME280;18221;38.704;0.152;2023-06-10T08:40:06;98550.75;;;32.66;25.33
10176;BME280;18221;38.704;0.152;2023-06-10T08:42:43;98556.41;;;33.54;24.72
10176;BME280;18221;38.704;0.152;2023-06-10T08:45:18;98551.41;;;34.67;22.79
10176;BME280;18221;38.704;0.152;2023-06-10T08:47:49;98556.38;;;36.00;22.44
10176;BME280;18221;38.704;0.152;2023-06-10T08:50:19;98555.16;;;36.84;21.53
10176;BME280;18221;38.704;0.152;2023-06-10T08:52:50;98551.66;;;37.01;21.01
10176;BME280;18221;38.704;0.152;2023-06-10T08:55:28;98555.63;;;36.78;21.96
10176;BME280;18221;38.704;0.152;2023-06-10T08:57:59;98554.50;;;36.09;21.74
10176;BME280;18221;38.704;0.152;2023-06-10T09:00:29;98556.66;;;35.98;21.46
10176;BME280;18221;38.704;0.152;2023-06-10T09:02:59;98555.31;;;36.09;21.60
10176;BME280;18221;38.704;0.152;2023-06-10T09:05:30;98554.00;;;35.26;21.57
10176;BME280;18221;38.704;0.152;2023-06-10T09:08:01;98555.03;;;34.35;21.97
10176;BME280;18221;38.704;0.152;2023-06-10T09:10:30;98555.75;;;33.95;23.12
10176;BME280;18221;38.704;0.152;2023-06-10T09:12:58;98563.50;;;33.42;23.77
10176;BME280;18221;38.704;0.152;2023-06-10T09:15:28;98558.06;;;33.37;24.24
10176;BME280;18221;38.704;0.152;2023-06-10T09:17:56;98557.09;;;33.28;24.15
10176;BME280;18221;38.704;0.152;2023-06-10T09:20:24;98568.50;;;32.97;24.46
10176;BME280;18221;38.704;0.152;2023-06-10T09:22:52;98568.09;;;32.62;24.41
10176;BME280;18221;38.704;0.152;2023-06-10T09:25:35;98581.72;;;32.48;24.57
10176;BME280;18221;38.704;0.152;2023-06-10T09:28:05;98580.00;;;32.57;24.46
10176;BME280;18221;38.704;0.152;2023-06-10T09:30:41;98587.34;;;32.38;24.24
10176;BME280;18221;38.704;0.152;2023-06-10T09:33:14;98588.75;;;33.07;24.97
10176;BME280;18221;38.704;0.152;2023-06-10T09:35:47;98590.91;;;33.10;24.76
10176;BME280;18221;38.704;0.152;2023-06-10T09:38:21;98584.19;;;32.97;24.25
10176;BME280;18221;38.704;0.152;2023-06-10T09:40:50;98583.03;;;33.22;24.75
10176;BME280;18221;38.704;0.152;2023-06-10T09:43:19;98591.91;;;33.19;23.51
10176;BME280;18221;38.704;0.152;2023-06-10T09:45:50;98588.88;;;33.58;23.62
10176;BME280;18221;38.704;0.152;2023-06-10T09:48:20;98593.03;;;33.74;23.74
10176;BME280;18221;38.704;0.152;2023-06-10T09:50:49;98583.44;;;33.71;24.46
10176;BME280;18221;38.704;0.152;2023-06-10T09:53:18;98587.25;;;34.07;25.44
10176;BME280;18221;38.704;0.152;2023-06-10T09:55:46;98578.91;;;34.26;26.67
10176;BME280;18221;38.704;0.152;2023-06-10T09:58:15;98590.84;;;34.22;27.08
10176;BME280;18221;38.704;0.152;2023-06-10T10:00:43;98589.09;;;34.12;27.25
10176;BME280;18221;38.704;0.152;2023-06-10T10:03:23;98580.53;;;34.13;27.09
10176;BME280;18221;38.704;0.152;2023-06-10T10:05:58;98594.53;;;33.98;27.18
10176;BME280;18221;38.704;0.152;2023-06-10T10:08:27;98588.25;;;33.79;27.80
10176;BME280;18221;38.704;0.152;2023-06-10T10:10:57;98594.56;;;33.80;28.18
10176;BME280;18221;38.704;0.152;2023-06-10T10:13:28;98588.78;;;33.81;28.10
10176;BME280;18221;38.704;0.152;2023-06-10T10:16:04;98595.53;;;33.51;28.23
10176;BME280;18221;38.704;0.152;2023-06-10T10:18:39;98591.91;;;33.75;28.14
10176;BME280;18221;38.704;0.152;2023-06-10T10:21:13;98589.00;;;33.66;28.77
10176;BME280;18221;38.704;0.152;2023-06-10T10:23:52;98585.78;;;33.22;30.84
10176;BME280;18221;38.704;0.152;2023-06-10T10:26:23;98587.34;;;33.09;30.89
10176;BME280;18221;38.704;0.152;2023-06-10T10:29:07;98586.53;;;33.27;31.66
10176;BME280;18221;38.704;0.152;2023-06-10T10:31:39;98587.34;;;33.28;31.24
10176;BME280;18221;38.704;0.152;2023-06-10T10:34:15;98588.22;;;33.05;30.34
10176;BME280;18221;38.704;0.152;2023-06-10T10:36:45;98589.69;;;32.97;30.33
10176;BME280;18221;38.704;0.152;2023-06-10T10:39:17;98593.31;;;33.16;31.31
10176;BME280;18221;38.704;0.152;2023-06-10T10:41:47;98580.88;;;33.37;31.40
10176;BME280;18221;38.704;0.152;2023-06-10T10:44:16;98588.75;;;33.07;31.87
10176;BME280;18221;38.704;0.152;2023-06-10T10:46:49;98581.66;;;33.01;32.20
10176;BME280;18221;38.704;0.152;2023-06-10T10:49:19;98578.31;;;33.04;31.97
10176;BME280;18221;38.704;0.152;2023-06-10T10:51:59;98580.44;;;33.12;31.58
10176;BME280;18221;38.704;0.152;2023-06-10T10:54:32;98574.34;;;33.15;31.26
10176;BME280;18221;38.704;0.152;2023-06-10T10:57:17;98579.47;;;33.40;31.08
10176;BME280;18221;38.704;0.152;2023-06-10T10:59:55;98576.78;;;33.35;31.67
10176;BME280;18221;38.704;0.152;2023-06-10T11:02:40;98580.22;;;33.45;31.77
10176;BME280;18221;38.704;0.152;2023-06-10T11:05:14;98590.78;;;33.20;34.18
10176;BME280;18221;38.704;0.152;2023-06-10T11:07:54;98583.94;;;33.17;34.17
10176;BME280;18221;38.704;0.152;2023-06-10T11:10:31;98593.16;;;33.08;33.66
10176;BME280;18221;38.704;0.152;2023-06-10T11:13:00;98590.16;;;33.04;33.79
10176;BME280;18221;38.704;0.152;2023-06-10T11:15:29;98587.13;;;32.58;35.46
10176;BME280;18221;38.704;0.152;2023-06-10T11:18:12;98591.81;;;32.81;34.70
10176;BME280;18221;38.704;0.152;2023-06-10T11:21:01;98586.34;;;33.00;35.08
10176;BME280;18221;38.704;0.152;2023-06-10T11:23:41;98593.78;;;33.00;33.53
10176;BME280;18221;38.704;0.152;2023-06-10T11:26:15;98595.63;;;33.28;33.05
10176;BME280;18221;38.704;0.152;2023-06-10T11:29:04;98602.69;;;33.34;32.20
10176;BME280;18221;38.704;0.152;2023-06-10T11:31:39;98602.97;;;33.14;32.75
10176;BME280;18221;38.704;0.152;2023-06-10T11:34:08;98592.19;;;33.17;32.65
10176;BME280;18221;38.704;0.152;2023-06-10T11:36:40;98593.59;;;32.91;31.59
10176;BME280;18221;38.704;0.152;2023-06-10T11:39:12;98596.25;;;32.77;32.65
10176;BME280;18221;38.704;0.152;2023-06-10T11:41:40;98606.94;;;33.03;33.30
10176;BME280;18221;38.704;0.152;2023-06-10T11:44:10;98599.59;;;32.74;34.38
10176;BME280;18221;38.704;0.152;2023-06-10T11:46:39;98608.69;;;32.93;33.15
10176;BME280;18221;38.704;0.152;2023-06-10T11:49:09;98608.25;;;33.10;32.76
10176;BME280;18221;38.704;0.152;2023-06-10T11:51:39;98603.19;;;33.17;32.65
10176;BME280;18221;38.704;0.152;2023-06-10T11:54:15;98605.25;;;33.07;33.46
10176;BME280;18221;38.704;0.152;2023-06-10T11:56:45;98594.56;;;32.81;33.31
10176;BME280;18221;38.704;0.152;2023-06-10T11:59:14;98601.84;;;32.91;33.41
10176;BME280;18221;38.704;0.152;2023-06-10T12:01:44;98602.59;;;32.96;33.01
10176;BME280;18221;38.704;0.152;2023-06-10T12:04:14;98598.53;;;32.94;33.03
10176;BME280;18221;38.704;0.152;2023-06-10T12:06:46;98603.56;;;33.11;32.98
10176;BME280;18221;38.704;0.152;2023-06-10T12:09:20;98600.75;;;33.16;33.88
10176;BME280;18221;38.704;0.152;2023-06-10T12:11:51;98598.91;;;33.11;32.65
10176;BME280;18221;38.704;0.152;2023-06-10T12:14:55;98583.78;;;33.27;33.31
10176;BME280;18221;38.704;0.152;2023-06-10T12:17:36;98590.25;;;32.94;33.58
10176;BME280;18221;38.704;0.152;2023-06-10T12:20:07;98588.94;;;32.68;33.85
10176;BME280;18221;38.704;0.152;2023-06-10T12:22:41;98593.63;;;32.67;33.42
10176;BME280;18221;38.704;0.152;2023-06-10T12:25:11;98589.19;;;32.71;33.85
10176;BME280;18221;38.704;0.152;2023-06-10T12:27:50;98588.41;;;32.89;32.97
10176;BME280;18221;38.704;0.152;2023-06-10T12:30:20;98577.00;;;33.20;33.07
10176;BME280;18221;38.704;0.152;2023-06-10T12:32:49;98580.16;;;33.32;33.80
10176;BME280;18221;38.704;0.152;2023-06-10T12:35:20;98575.69;;;33.36;32.74
10176;BME280;18221;38.704;0.152;2023-06-10T12:38:00;98578.50;;;33.49;32.38
10176;BME280;18221;38.704;0.152;2023-06-10T12:40:29;98581.78;;;33.33;32.43
10176;BME280;18221;38.704;0.152;2023-06-10T12:42:59;98588.78;;;33.44;32.90
10176;BME280;18221;38.704;0.152;2023-06-10T12:45:27;98583.56;;;33.61;32.57
10176;BME280;18221;38.704;0.152;2023-06-10T12:48:06;98585.06;;;33.72;32.25
10176;BME280;18221;38.704;0.152;2023-06-10T12:50:36;98586.63;;;33.41;31.47
10176;BME280;18221;38.704;0.152;2023-06-10T12:53:07;98575.69;;;33.17;31.78
10176;BME280;18221;38.704;0.152;2023-06-10T12:55:35;98573.59;;;33.28;32.56
10176;BME280;18221;38.704;0.152;2023-06-10T12:58:03;98576.59;;;33.50;31.64
10176;BME280;18221;38.704;0.152;2023-06-10T13:00:31;98566.47;;;33.64;31.37
10176;BME280;18221;38.704;0.152;2023-06-10T13:03:02;98573.44;;;33.75;32.21
10176;BME280;18221;38.704;0.152;2023-06-10T13:05:32;98575.00;;;33.81;31.38
10176;BME280;18221;38.704;0.152;2023-06-10T13:08:00;98567.25;;;33.83;30.50
10176;BME280;18221;38.704;0.152;2023-06-10T13:10:30;98561.19;;;33.68;30.89
10176;BME280;18221;38.704;0.152;2023-06-10T13:12:58;98563.03;;;33.72;30.79
10176;BME280;18221;38.704;0.152;2023-06-10T13:15:26;98561.41;;;33.71;30.52
10176;BME280;18221;38.704;0.152;2023-06-10T13:17:54;98566.00;;;33.76;30.94
10176;BME280;18221;38.704;0.152;2023-06-10T13:20:22;98562.00;;;33.68;30.71
10176;BME280;18221;38.704;0.152;2023-06-10T13:22:50;98557.28;;;33.69;30.58
10176;BME280;18221;38.704;0.152;2023-06-10T13:25:18;98553.72;;;33.87;30.58